Aeroporto :
LOGIN :

Iscrizione | Disclaimer

   EN    FR    IT 

 










Sommario :    VFR   VFR Marginale   IFR   IFR Intensivo   IFR Molto Intensivo
Visibilità : 
Base nubi : 
>= 8 km
>= 3000ft
5 / 8 km
1000 / 3000 ft
1500m / 5 km
500 / 1000 ft
800 / 1500m
200 / 500 ft
< 800m
< 200 ft
Simboli :   Temporali  Nebbia  Neve Forte  Precipitazioni Forti  Vento > 20 kt
SIGMETs :   Varie  Temporali  Ghiacco  Turbolenza  Onda orograficha  Ceneri Vulcaniche






- Altitudine del aeroporto : 412 ft
- Codice IATA : ORE


LFOJ - Orleans

ULTIMO METAR :
  • 200400Z AUTO 09007KT CAVOK M00/M01 Q1014

METARs OBSOLETI :
  • 200330Z AUTO 10007KT CAVOK M00/M01 Q1014
  • 200300Z AUTO 10006KT CAVOK M00/M01 Q1015
  • 200230Z AUTO 10005KT CAVOK 00/M01 Q1015
  • 200200Z AUTO 10005KT CAVOK 00/M00 Q1015
  • 200130Z AUTO 11005KT CAVOK 01/M00 Q1015

TAF TAF LFOJ
Valido dal 19 a 15 ore il 20 a 15 ore UTC


191400Z 1915/2015 21003KT 9999 OVC045
BECMG 1917/1919 BKN011
BECMG 1920/1922 3000 BR BKN008
PROB30
TEMPO 1923/2002 0800 FG VV///
BECMG 2002/2004 09010KT
BECMG 2005/2007 6000 NSW SCT009 BKN014



MetMap, La meteo Aeronautica in un colpo d'occhio ! - Copyright ORBIFLY Dicembre 2007 - Disclaimer

ORBIFLY MET'MAP TEAM :

Programmazione e sviluppo : Alexandra Zaïnal
Concezione e sviluppo : Baudouin d'Aumeries
Co-Programmazione e sviluppo : Marc-Olivier Méhu
Supporto tecnico e logistico : Manuel Goepfert
Aiuto per la traduzione : Arnaldo La Scala

Contatto : metmap@orbifly.com




FONTI E CREDITI :

   NOAA